createdAt,value
2023-01-11T00:00:22.905Z,92.30
2023-01-11T00:01:22.898Z,92.40
2023-01-11T00:02:22.969Z,92.44
2023-01-11T00:03:22.871Z,92.03
2023-01-11T00:04:22.887Z,92.21
2023-01-11T00:05:22.858Z,92.45
2023-01-11T00:06:22.876Z,92.62
2023-01-11T00:07:22.796Z,92.55
2023-01-11T00:08:22.805Z,92.37
2023-01-11T00:09:22.773Z,92.16
2023-01-11T00:10:22.781Z,92.15
2023-01-11T00:11:22.753Z,92.38
2023-01-11T00:12:22.732Z,92.45
2023-01-11T00:13:22.732Z,92.25
2023-01-11T00:14:22.732Z,92.10
2023-01-11T00:15:22.705Z,92.08
2023-01-11T00:16:22.728Z,92.12
2023-01-11T00:17:22.666Z,92.21
2023-01-11T00:18:22.664Z,92.12
2023-01-11T00:19:22.663Z,92.06
2023-01-11T00:20:22.630Z,92.07
2023-01-11T00:21:22.631Z,92.03
2023-01-11T00:22:22.617Z,92.00
2023-01-11T00:23:22.609Z,91.90
2023-01-11T00:24:22.599Z,91.88
2023-01-11T00:25:22.586Z,91.78
2023-01-11T00:26:22.556Z,92.01
2023-01-11T00:27:22.558Z,92.08
2023-01-11T00:28:22.532Z,92.00
2023-01-11T00:29:22.508Z,91.95
2023-01-11T00:30:22.508Z,92.02
2023-01-11T00:31:22.546Z,91.96
2023-01-11T00:32:22.525Z,92.09
2023-01-11T00:33:22.463Z,92.05
2023-01-11T00:34:22.478Z,92.13
2023-01-11T00:35:22.432Z,92.01
2023-01-11T00:36:22.412Z,92.04
2023-01-11T00:37:22.425Z,92.35
2023-01-11T00:38:22.406Z,92.29
2023-01-11T00:39:22.386Z,92.08
2023-01-11T00:40:22.363Z,92.06
2023-01-11T00:41:22.393Z,91.90
2023-01-11T00:42:22.359Z,92.05
2023-01-11T00:43:22.328Z,92.20
2023-01-11T00:44:22.330Z,92.07
2023-01-11T00:45:22.326Z,92.09
2023-01-11T00:46:22.340Z,92.18
2023-01-11T00:47:22.290Z,91.90
2023-01-11T00:48:22.279Z,91.81
2023-01-11T00:49:22.268Z,91.71
2023-01-11T00:50:22.239Z,91.80
2023-01-11T00:51:22.280Z,91.76
2023-01-11T00:52:22.216Z,91.70
2023-01-11T00:53:22.221Z,91.62
2023-01-11T00:54:22.207Z,91.64
2023-01-11T00:55:22.163Z,91.73
2023-01-11T00:56:22.188Z,91.57
2023-01-11T00:57:22.159Z,91.26
2023-01-11T00:58:22.147Z,91.02
2023-01-11T00:59:22.143Z,91.07
2023-01-11T01:00:22.210Z,91.01
2023-01-11T01:01:22.139Z,91.01
2023-01-11T01:02:22.131Z,90.87
2023-01-11T01:03:22.084Z,90.56
2023-01-11T01:04:22.102Z,90.44
2023-01-11T01:05:22.090Z,90.18
2023-01-11T01:06:22.067Z,90.29
2023-01-11T01:07:22.085Z,90.22
2023-01-11T01:08:22.068Z,90.31
2023-01-11T01:09:22.040Z,90.21
2023-01-11T01:10:22.036Z,90.17
2023-01-11T01:11:22.016Z,90.23
2023-01-11T01:12:22.027Z,90.12
2023-01-11T01:13:21.990Z,90.15
2023-01-11T01:14:21.962Z,90.26
2023-01-11T01:15:21.922Z,90.29
2023-01-11T01:16:21.996Z,90.20
2023-01-11T01:17:21.938Z,90.26
2023-01-11T01:18:21.986Z,90.17
2023-01-11T01:19:21.892Z,90.20
2023-01-11T01:20:21.919Z,90.00
2023-01-11T01:21:21.886Z,89.99
2023-01-11T01:22:21.925Z,90.07
2023-01-11T01:23:21.884Z,89.99
2023-01-11T01:24:21.867Z,90.12
2023-01-11T01:25:21.828Z,89.88
2023-01-11T01:26:21.782Z,89.84
2023-01-11T01:27:21.896Z,89.72
2023-01-11T01:28:21.855Z,89.45
2023-01-11T01:29:21.886Z,89.31
2023-01-11T01:30:21.789Z,89.28
2023-01-11T01:31:21.769Z,89.40
2023-01-11T01:32:21.762Z,89.39
2023-01-11T01:33:21.760Z,89.41
2023-01-11T01:34:21.673Z,89.23
2023-01-11T01:35:21.768Z,88.99
2023-01-11T01:36:21.701Z,88.96
2023-01-11T01:37:21.712Z,88.76
2023-01-11T01:38:21.743Z,88.62
2023-01-11T01:39:21.661Z,88.58
2023-01-11T01:40:21.713Z,88.57
2023-01-11T01:41:21.661Z,88.66
2023-01-11T01:42:21.637Z,88.32
2023-01-11T01:43:21.650Z,88.19
2023-01-11T01:44:21.602Z,88.50
2023-01-11T01:45:21.635Z,88.74
2023-01-11T01:46:21.618Z,88.87
2023-01-11T01:47:21.570Z,88.88
2023-01-11T01:48:21.613Z,88.86
2023-01-11T01:49:21.567Z,89.03
2023-01-11T01:50:21.520Z,88.69
2023-01-11T01:51:21.524Z,88.70
2023-01-11T01:52:21.459Z,88.55
2023-01-11T01:53:21.479Z,88.37
2023-01-11T01:54:21.448Z,88.48
2023-01-11T01:55:21.409Z,88.39
2023-01-11T01:56:21.410Z,88.22
2023-01-11T01:57:21.364Z,88.29
2023-01-11T01:58:21.354Z,88.00
2023-01-11T01:59:21.367Z,87.94
2023-01-11T02:00:21.360Z,88.01
2023-01-11T02:01:21.402Z,88.22
2023-01-11T02:02:21.411Z,88.17
2023-01-11T02:03:21.301Z,88.06
2023-01-11T02:04:21.313Z,87.93
2023-01-11T02:05:21.273Z,87.61
2023-01-11T02:06:21.360Z,87.61
2023-01-11T02:07:21.261Z,87.78
2023-01-11T02:08:21.235Z,87.55
2023-01-11T02:09:21.235Z,87.46
2023-01-11T02:10:21.270Z,87.52
2023-01-11T02:11:21.209Z,87.56
2023-01-11T02:12:21.212Z,87.19
2023-01-11T02:13:21.177Z,87.13
2023-01-11T02:14:21.162Z,87.18
2023-01-11T02:15:21.199Z,86.89
2023-01-11T02:16:21.149Z,87.15
2023-01-11T02:17:21.177Z,86.87
2023-01-11T02:18:21.109Z,86.56
2023-01-11T02:19:21.087Z,86.20
2023-01-11T02:20:21.139Z,86.14
2023-01-11T02:21:21.110Z,86.15
2023-01-11T02:22:21.128Z,86.15
2023-01-11T02:23:21.043Z,86.27
2023-01-11T02:24:21.040Z,85.87
2023-01-11T02:25:21.008Z,85.71
2023-01-11T02:26:21.018Z,85.87
2023-01-11T02:27:20.985Z,85.58
2023-01-11T02:28:20.962Z,85.58
2023-01-11T02:29:20.984Z,85.62
2023-01-11T02:30:20.957Z,85.62
2023-01-11T02:31:21.048Z,85.22
2023-01-11T02:32:20.946Z,85.34
2023-01-11T02:33:20.897Z,85.35
2023-01-11T02:34:20.913Z,84.82
2023-01-11T02:35:20.894Z,84.98
2023-01-11T02:36:20.884Z,84.92
2023-01-11T02:37:20.876Z,85.03
2023-01-11T02:38:20.857Z,84.91
2023-01-11T02:39:20.829Z,84.92
2023-01-11T02:40:20.841Z,84.82
2023-01-11T02:41:20.813Z,84.82
2023-01-11T02:42:20.812Z,85.14
2023-01-11T02:43:20.830Z,84.86
2023-01-11T02:44:20.802Z,85.05
2023-01-11T02:45:20.762Z,84.92
2023-01-11T02:46:20.841Z,84.87
2023-01-11T02:47:20.733Z,84.45
2023-01-11T02:48:20.736Z,84.42
2023-01-11T02:49:20.785Z,84.59
2023-01-11T02:50:20.716Z,84.64
2023-01-11T02:51:20.736Z,84.59
2023-01-11T02:52:20.759Z,84.21
2023-01-11T02:53:20.654Z,84.33
2023-01-11T02:54:20.737Z,84.42
2023-01-11T02:55:20.611Z,84.34
2023-01-11T02:56:20.602Z,84.59
2023-01-11T02:57:20.597Z,84.82
2023-01-11T02:58:20.627Z,84.86
2023-01-11T02:59:20.570Z,84.68
2023-01-11T03:00:20.562Z,84.67
2023-01-11T03:01:20.550Z,84.58
2023-01-11T03:02:20.554Z,84.65
2023-01-11T03:03:20.567Z,84.62
2023-01-11T03:04:20.539Z,84.99
2023-01-11T03:05:20.481Z,85.02
2023-01-11T03:06:20.506Z,84.89
2023-01-11T03:07:20.461Z,84.67
2023-01-11T03:08:20.480Z,84.88
2023-01-11T03:09:20.500Z,84.61
2023-01-11T03:10:20.468Z,84.68
2023-01-11T03:11:20.432Z,84.83
2023-01-11T03:12:20.404Z,84.63
2023-01-11T03:13:20.400Z,84.75
2023-01-11T03:14:20.380Z,84.56
2023-01-11T03:15:20.457Z,84.46
2023-01-11T03:16:20.400Z,83.99
2023-01-11T03:17:20.346Z,84.09
2023-01-11T03:18:20.341Z,83.91
2023-01-11T03:19:20.311Z,83.79
2023-01-11T03:20:20.319Z,84.09
2023-01-11T03:21:20.306Z,84.10
2023-01-11T03:22:20.314Z,84.40
2023-01-11T03:23:20.264Z,84.44
2023-01-11T03:24:20.230Z,84.26
2023-01-11T03:25:20.215Z,84.22
2023-01-11T03:26:20.233Z,84.20
2023-01-11T03:27:20.226Z,83.97
2023-01-11T03:28:20.209Z,84.11
2023-01-11T03:29:20.197Z,84.34
2023-01-11T03:30:20.155Z,84.17
2023-01-11T03:31:20.168Z,84.15
2023-01-11T03:32:20.161Z,84.25
2023-01-11T03:33:20.135Z,84.39
2023-01-11T03:34:20.147Z,84.51
2023-01-11T03:35:20.114Z,84.38
2023-01-11T03:36:20.133Z,83.85
2023-01-11T03:37:20.083Z,83.95
2023-01-11T03:38:20.117Z,83.98
2023-01-11T03:39:20.069Z,84.26
2023-01-11T03:40:20.032Z,84.25
2023-01-11T03:41:20.033Z,84.21
2023-01-11T03:42:20.019Z,84.23
2023-01-11T03:43:20.025Z,84.38
2023-01-11T03:44:20.012Z,84.37
2023-01-11T03:45:19.984Z,84.49
2023-01-11T03:46:20.026Z,84.31
2023-01-11T03:47:19.984Z,84.23
2023-01-11T03:48:19.950Z,83.78
2023-01-11T03:49:19.928Z,84.00
2023-01-11T03:50:19.929Z,84.14
2023-01-11T03:51:19.882Z,84.23
2023-01-11T03:52:19.884Z,84.31
2023-01-11T03:53:19.905Z,84.63
2023-01-11T03:54:19.859Z,84.74
2023-01-11T03:55:19.828Z,84.66
2023-01-11T03:56:19.822Z,84.65
2023-01-11T03:57:19.795Z,84.60
2023-01-11T03:58:19.834Z,84.48
2023-01-11T03:59:19.853Z,84.56
2023-01-11T04:00:19.806Z,84.70
2023-01-11T04:01:19.767Z,84.88
2023-01-11T04:02:19.778Z,84.62
2023-01-11T04:03:19.779Z,84.62
2023-01-11T04:04:19.730Z,84.63
2023-01-11T04:05:19.721Z,84.93
2023-01-11T04:06:19.755Z,84.89
2023-01-11T04:07:19.680Z,84.81
2023-01-11T04:08:19.676Z,84.88
2023-01-11T04:09:19.717Z,85.10
2023-01-11T04:10:19.680Z,85.10
2023-01-11T04:11:19.657Z,85.04
2023-01-11T04:12:19.635Z,84.95
2023-01-11T04:13:19.611Z,84.76
2023-01-11T04:14:19.595Z,84.70
2023-01-11T04:15:19.606Z,84.83
2023-01-11T04:16:19.647Z,84.65
2023-01-11T04:17:19.557Z,84.65
2023-01-11T04:18:19.548Z,84.69
2023-01-11T04:19:19.513Z,84.79
2023-01-11T04:20:19.541Z,84.94
2023-01-11T04:21:19.497Z,84.96
2023-01-11T04:22:19.498Z,84.74
2023-01-11T04:23:19.532Z,84.85
2023-01-11T04:24:19.517Z,85.14
2023-01-11T04:25:19.432Z,85.12
2023-01-11T04:26:19.439Z,85.18
2023-01-11T04:27:19.447Z,85.11
2023-01-11T04:28:19.444Z,84.89
2023-01-11T04:29:19.409Z,85.04
2023-01-11T04:30:19.390Z,85.02
2023-01-11T04:31:19.379Z,85.03
2023-01-11T04:32:19.366Z,85.20
2023-01-11T04:33:19.357Z,85.42
2023-01-11T04:34:19.331Z,85.29
2023-01-11T04:35:19.311Z,85.17
2023-01-11T04:36:19.292Z,85.09
2023-01-11T04:37:19.305Z,85.47
2023-01-11T04:38:19.291Z,85.56
2023-01-11T04:39:19.244Z,85.51
2023-01-11T04:40:19.267Z,85.34
2023-01-11T04:41:19.266Z,85.42
2023-01-11T04:42:19.361Z,85.29
2023-01-11T04:43:19.213Z,85.24
2023-01-11T04:44:19.230Z,85.34
2023-01-11T04:45:19.209Z,85.51
2023-01-11T04:46:19.167Z,85.53
2023-01-11T04:47:19.140Z,85.61
2023-01-11T04:48:19.182Z,85.61
2023-01-11T04:49:19.147Z,85.47
2023-01-11T04:50:19.239Z,85.65
2023-01-11T04:51:19.155Z,85.72
2023-01-11T04:52:19.108Z,85.59
2023-01-11T04:53:19.121Z,85.71
2023-01-11T04:54:19.067Z,85.94
2023-01-11T04:55:19.051Z,85.86
2023-01-11T04:56:19.070Z,85.94
2023-01-11T04:57:19.054Z,86.12
2023-01-11T04:58:19.026Z,86.38
2023-01-11T04:59:19.010Z,86.23
2023-01-11T05:00:19.024Z,86.12
2023-01-11T05:01:19.144Z,86.03
2023-01-11T05:02:18.975Z,86.37
2023-01-11T05:03:19.002Z,86.42
2023-01-11T05:04:19.002Z,86.47
2023-01-11T05:05:18.925Z,86.58
2023-01-11T05:06:18.917Z,86.67
2023-01-11T05:07:18.899Z,86.73
2023-01-11T05:08:18.935Z,86.61
2023-01-11T05:09:18.912Z,86.81
2023-01-11T05:10:20.864Z,86.79
2023-01-11T05:11:18.863Z,86.87
2023-01-11T05:12:18.845Z,86.94
2023-01-11T05:13:18.840Z,86.97
2023-01-11T05:14:18.799Z,86.68
2023-01-11T05:15:18.805Z,87.03
2023-01-11T05:16:18.826Z,87.06
2023-01-11T05:17:18.801Z,87.04
2023-01-11T05:18:18.782Z,86.89
2023-01-11T05:19:18.796Z,86.99
2023-01-11T05:20:18.785Z,86.94
2023-01-11T05:21:18.741Z,87.22
2023-01-11T05:22:18.785Z,87.23
2023-01-11T05:23:18.695Z,87.17
2023-01-11T05:24:18.687Z,87.07
2023-01-11T05:25:18.663Z,87.05
2023-01-11T05:26:18.689Z,86.85
2023-01-11T05:27:18.622Z,87.05
2023-01-11T05:28:18.669Z,86.94
2023-01-11T05:29:18.609Z,86.73
2023-01-11T05:30:18.593Z,86.55
2023-01-11T05:31:18.639Z,86.66
2023-01-11T05:32:18.571Z,86.76
2023-01-11T05:33:18.541Z,86.69
2023-01-11T05:34:18.561Z,86.61
2023-01-11T05:35:18.544Z,86.62
2023-01-11T05:36:18.549Z,86.84
2023-01-11T05:37:18.517Z,86.85
2023-01-11T05:38:18.513Z,86.80
2023-01-11T05:39:18.495Z,86.71
2023-01-11T05:40:18.485Z,86.77
2023-01-11T05:41:18.475Z,86.92
2023-01-11T05:42:18.463Z,86.90
2023-01-11T05:43:18.444Z,86.80
2023-01-11T05:44:18.454Z,86.80
2023-01-11T05:45:18.427Z,87.22
2023-01-11T05:46:18.421Z,87.55
2023-01-11T05:47:18.395Z,87.60
2023-01-11T05:48:18.358Z,87.48
2023-01-11T05:49:18.380Z,87.25
2023-01-11T05:50:18.330Z,87.31
2023-01-11T05:51:18.311Z,87.62
2023-01-11T05:52:18.348Z,87.78
2023-01-11T05:53:18.323Z,88.01
2023-01-11T05:54:18.294Z,87.83
2023-01-11T05:55:18.281Z,88.19
2023-01-11T05:56:18.297Z,87.98
2023-01-11T05:57:18.238Z,88.17
2023-01-11T05:58:18.298Z,88.22
2023-01-11T05:59:18.229Z,88.26
2023-01-11T06:00:18.234Z,88.49
2023-01-11T06:01:18.207Z,88.48
2023-01-11T06:02:18.344Z,88.49
2023-01-11T06:03:18.248Z,88.68
2023-01-11T06:04:18.165Z,88.58
2023-01-11T06:05:18.147Z,88.54
2023-01-11T06:06:18.109Z,88.48
2023-01-11T06:07:18.159Z,88.47
2023-01-11T06:08:18.117Z,88.39
2023-01-11T06:09:18.139Z,88.46
2023-01-11T06:10:18.061Z,88.42
2023-01-11T06:11:18.083Z,88.29
2023-01-11T06:12:18.069Z,88.32
2023-01-11T06:13:18.044Z,88.55
2023-01-11T06:14:18.036Z,88.47
2023-01-11T06:15:17.999Z,88.46
2023-01-11T06:16:18.103Z,88.06
2023-01-11T06:17:18.003Z,88.27
2023-01-11T06:18:17.993Z,88.04
2023-01-11T06:19:17.948Z,87.82
2023-01-11T06:20:17.940Z,87.71
2023-01-11T06:21:17.940Z,87.71
2023-01-11T06:22:17.946Z,87.86
2023-01-11T06:23:17.960Z,87.95
2023-01-11T06:24:17.914Z,87.82
2023-01-11T06:25:17.867Z,87.86
2023-01-11T06:26:17.881Z,87.86
2023-01-11T06:27:17.863Z,87.88
2023-01-11T06:28:17.860Z,87.98
2023-01-11T06:29:17.855Z,87.98
2023-01-11T06:30:17.859Z,87.90
2023-01-11T06:31:18.428Z,87.98
2023-01-11T06:32:17.827Z,87.99
2023-01-11T06:33:17.819Z,87.95
2023-01-11T06:34:17.757Z,87.80
2023-01-11T06:35:17.750Z,87.73
2023-01-11T06:36:17.774Z,87.63
2023-01-11T06:37:17.737Z,87.69
2023-01-11T06:38:17.731Z,87.60
2023-01-11T06:39:17.739Z,87.54
2023-01-11T06:40:17.694Z,87.77
2023-01-11T06:41:17.674Z,87.84
2023-01-11T06:42:17.681Z,87.61
2023-01-11T06:43:17.659Z,87.58
2023-01-11T06:44:17.642Z,87.70
2023-01-11T06:45:17.667Z,87.61
2023-01-11T06:46:17.723Z,87.63
2023-01-11T06:47:17.621Z,87.54
2023-01-11T06:48:17.575Z,87.65
2023-01-11T06:49:17.577Z,87.65
2023-01-11T06:50:17.599Z,87.58
2023-01-11T06:51:17.592Z,87.69
2023-01-11T06:52:17.575Z,87.93
2023-01-11T06:53:17.544Z,87.99
2023-01-11T06:54:17.530Z,87.96
2023-01-11T06:55:17.504Z,87.89
2023-01-11T06:56:17.527Z,87.97
2023-01-11T06:57:17.443Z,87.89
2023-01-11T06:58:17.458Z,87.85
2023-01-11T06:59:17.474Z,87.85
2023-01-11T07:00:17.440Z,87.98
2023-01-11T07:01:17.483Z,87.85
2023-01-11T07:02:17.402Z,87.78
2023-01-11T07:03:17.387Z,87.78
2023-01-11T07:04:17.542Z,87.81
2023-01-11T07:05:19.248Z,87.66
2023-01-11T07:06:17.365Z,87.57
2023-01-11T07:07:17.326Z,87.60
2023-01-11T07:08:17.329Z,87.76
2023-01-11T07:09:17.303Z,87.92
2023-01-11T07:10:17.299Z,88.12
2023-01-11T07:11:17.318Z,87.97
2023-01-11T07:12:17.313Z,87.92
2023-01-11T07:13:17.320Z,87.93
2023-01-11T07:14:17.310Z,87.93
2023-01-11T07:15:17.245Z,88.04
2023-01-11T07:16:17.299Z,88.04
2023-01-11T07:17:17.207Z,88.06
2023-01-11T07:18:17.207Z,88.01
2023-01-11T07:19:17.173Z,87.99
2023-01-11T07:20:17.175Z,88.13
2023-01-11T07:21:17.171Z,88.07
2023-01-11T07:22:17.141Z,88.04
2023-01-11T07:23:17.159Z,88.02
2023-01-11T07:24:17.125Z,87.77
2023-01-11T07:25:17.148Z,87.94
2023-01-11T07:26:17.246Z,88.08
2023-01-11T07:27:17.102Z,88.23
2023-01-11T07:28:17.087Z,88.23
2023-01-11T07:29:17.048Z,88.36
2023-01-11T07:30:17.032Z,88.42
2023-01-11T07:31:17.064Z,88.47
2023-01-11T07:32:17.006Z,88.45
2023-01-11T07:33:16.985Z,88.39
2023-01-11T07:34:16.972Z,88.32
2023-01-11T07:35:16.968Z,88.42
2023-01-11T07:36:16.964Z,88.48
2023-01-11T07:37:29.075Z,88.51
2023-01-11T07:38:16.950Z,88.83
2023-01-11T07:39:16.922Z,88.84
2023-01-11T07:40:16.940Z,88.86
2023-01-11T07:41:16.884Z,89.11
2023-01-11T07:42:16.896Z,89.21
2023-01-11T07:43:16.896Z,89.24
2023-01-11T07:44:16.869Z,89.10
2023-01-11T07:45:16.912Z,89.14
2023-01-11T07:46:16.884Z,88.99
2023-01-11T07:47:16.854Z,88.94
2023-01-11T07:48:16.785Z,89.01
2023-01-11T07:49:16.799Z,88.98
2023-01-11T07:50:16.768Z,88.98
2023-01-11T07:51:16.773Z,88.84
2023-01-11T07:52:16.776Z,88.80
2023-01-11T07:53:16.773Z,88.85
2023-01-11T07:54:16.708Z,88.92
2023-01-11T07:55:16.734Z,89.01
2023-01-11T07:56:16.683Z,89.06
2023-01-11T07:57:16.691Z,89.14
2023-01-11T07:58:16.679Z,89.22
2023-01-11T07:59:16.659Z,89.28
2023-01-11T08:00:16.637Z,89.38
2023-01-11T08:01:16.645Z,89.48
2023-01-11T08:02:16.661Z,89.67
2023-01-11T08:03:16.784Z,89.71
2023-01-11T08:04:16.595Z,89.58
2023-01-11T08:05:16.574Z,89.54
2023-01-11T08:06:16.564Z,89.64
2023-01-11T08:07:16.600Z,89.55
2023-01-11T08:08:16.526Z,89.53
2023-01-11T08:09:16.539Z,89.52
2023-01-11T08:10:16.559Z,89.28
2023-01-11T08:11:16.523Z,89.32
2023-01-11T08:12:16.502Z,89.39
2023-01-11T08:13:16.504Z,89.34
2023-01-11T08:14:16.492Z,89.47
2023-01-11T08:15:16.448Z,89.57
2023-01-11T08:16:16.532Z,89.52
2023-01-11T08:17:16.413Z,89.51
2023-01-11T08:18:16.389Z,89.55
2023-01-11T08:19:16.386Z,89.50
2023-01-11T08:20:16.363Z,89.52
2023-01-11T08:21:16.360Z,89.63
2023-01-11T08:22:16.339Z,89.72
2023-01-11T08:23:16.359Z,89.60
2023-01-11T08:24:16.358Z,89.57
2023-01-11T08:25:16.316Z,89.58
2023-01-11T08:26:16.292Z,89.60
2023-01-11T08:27:16.302Z,89.69
2023-01-11T08:28:16.317Z,89.78
2023-01-11T08:29:16.288Z,89.88
2023-01-11T08:30:16.237Z,89.91
2023-01-11T08:31:16.279Z,90.04
2023-01-11T08:32:16.245Z,89.97
2023-01-11T08:33:16.225Z,89.98
2023-01-11T08:34:16.211Z,90.03
2023-01-11T08:35:16.202Z,90.05
2023-01-11T08:36:16.232Z,89.68
2023-01-11T08:37:16.153Z,89.72
2023-01-11T08:38:16.147Z,89.77
2023-01-11T08:39:16.147Z,89.73
2023-01-11T08:40:16.123Z,89.77
2023-01-11T08:41:16.113Z,89.66
2023-01-11T08:42:16.072Z,89.69
2023-01-11T08:43:16.110Z,89.66
2023-01-11T08:44:22.237Z,89.66
2023-01-11T08:45:16.084Z,89.79
2023-01-11T08:46:16.112Z,89.78
2023-01-11T08:47:16.083Z,89.78
2023-01-11T08:48:16.007Z,89.78
2023-01-11T08:49:15.997Z,89.86
2023-01-11T08:50:15.985Z,89.98
2023-01-11T08:51:16.010Z,89.93
2023-01-11T08:52:16.017Z,89.99
2023-01-11T08:53:16.002Z,90.06
2023-01-11T08:54:15.977Z,90.01
2023-01-11T08:55:15.938Z,89.95
2023-01-11T08:56:15.925Z,90.01
2023-01-11T08:57:15.929Z,90.00
2023-01-11T08:58:15.951Z,89.79
2023-01-11T08:59:15.871Z,89.94
2023-01-11T09:00:15.905Z,89.96
2023-01-11T09:01:15.891Z,90.03
2023-01-11T09:02:15.869Z,90.06
2023-01-11T09:03:15.842Z,90.23
2023-01-11T09:04:24.860Z,90.08
2023-01-11T09:05:18.197Z,90.07
2023-01-11T09:06:15.770Z,90.10
2023-01-11T09:07:15.797Z,90.08
2023-01-11T09:08:15.796Z,90.06
2023-01-11T09:09:15.768Z,90.05
2023-01-11T09:10:15.824Z,90.04
2023-01-11T09:11:15.734Z,90.04
2023-01-11T09:12:15.705Z,89.96
2023-01-11T09:13:15.722Z,90.04
2023-01-11T09:14:15.684Z,90.00
2023-01-11T09:15:15.696Z,90.04
2023-01-11T09:16:15.690Z,89.89
2023-01-11T09:17:15.643Z,90.00
2023-01-11T09:18:15.614Z,90.11
2023-01-11T09:19:15.627Z,89.99
2023-01-11T09:20:15.629Z,89.92
2023-01-11T09:21:15.595Z,89.78
2023-01-11T09:22:15.649Z,89.65
2023-01-11T09:23:15.584Z,89.72
2023-01-11T09:24:15.568Z,89.92
2023-01-11T09:25:15.598Z,89.85
2023-01-11T09:26:15.541Z,89.65
2023-01-11T09:27:15.561Z,89.74
2023-01-11T09:28:15.511Z,89.72
2023-01-11T09:29:15.530Z,89.69
2023-01-11T09:30:15.500Z,89.69
2023-01-11T09:31:15.516Z,89.72
2023-01-11T09:32:15.446Z,89.84
2023-01-11T09:33:15.439Z,89.69
2023-01-11T09:34:15.410Z,89.70
2023-01-11T09:35:15.455Z,89.71
2023-01-11T09:36:15.399Z,89.77
2023-01-11T09:37:15.381Z,89.81
2023-01-11T09:38:15.393Z,89.60
2023-01-11T09:39:15.358Z,89.54
2023-01-11T09:40:15.363Z,89.62
2023-01-11T09:41:15.316Z,89.65
2023-01-11T09:42:15.376Z,89.61
2023-01-11T09:43:15.303Z,89.54
2023-01-11T09:44:15.287Z,89.69
2023-01-11T09:45:15.261Z,89.69
2023-01-11T09:46:15.320Z,89.63
2023-01-11T09:47:15.249Z,89.92
2023-01-11T09:48:15.235Z,89.85
2023-01-11T09:49:15.231Z,89.74
2023-01-11T09:50:15.242Z,89.64
2023-01-11T09:51:15.216Z,89.70
2023-01-11T09:52:15.221Z,89.74
2023-01-11T09:53:15.180Z,89.61
2023-01-11T09:54:15.160Z,89.66
2023-01-11T09:55:15.159Z,89.64
2023-01-11T09:56:15.115Z,89.86
2023-01-11T09:57:15.118Z,89.77
2023-01-11T09:58:15.087Z,89.84
2023-01-11T09:59:15.110Z,89.82
2023-01-11T10:00:15.108Z,89.89
2023-01-11T10:01:15.107Z,89.86
2023-01-11T10:02:16.011Z,89.92
2023-01-11T10:03:15.063Z,90.06
2023-01-11T10:04:15.000Z,89.91
2023-01-11T10:05:15.269Z,89.98
2023-01-11T10:06:15.047Z,89.84
2023-01-11T10:07:14.990Z,90.09
2023-01-11T10:18:23.632Z,90.11
2023-01-11T10:18:58.891Z,90.38
2023-01-11T10:19:35.032Z,90.30
2023-01-11T10:19:49.854Z,90.35
2023-01-11T10:20:49.766Z,90.56
2023-01-11T10:21:49.793Z,90.74
2023-01-11T10:22:49.763Z,91.28
2023-01-11T10:23:49.811Z,91.96
2023-01-11T10:24:49.742Z,92.90
2023-01-11T10:25:49.747Z,93.60
2023-01-11T10:26:49.803Z,94.18
2023-01-11T10:27:49.663Z,94.49
2023-01-11T10:28:49.661Z,94.84
2023-01-11T10:29:49.758Z,95.43
2023-01-11T10:30:49.689Z,95.91
2023-01-11T10:31:49.726Z,95.93
2023-01-11T10:32:49.634Z,96.31
2023-01-11T10:33:49.695Z,96.83
2023-01-11T10:34:49.609Z,96.81
2023-01-11T10:35:49.594Z,97.14
2023-01-11T10:36:49.531Z,97.52
2023-01-11T10:37:49.555Z,97.56
2023-01-11T10:38:49.522Z,97.88
2023-01-11T10:39:49.595Z,98.15
2023-01-11T10:40:49.529Z,98.64
2023-01-11T10:41:49.526Z,99.18
2023-01-11T10:42:49.478Z,99.41
2023-01-11T10:43:49.467Z,99.78
2023-01-11T10:44:49.442Z,100.00
2023-01-11T10:45:49.486Z,100.00
2023-01-11T10:46:49.411Z,100.00
2023-01-11T10:47:49.436Z,100.00
2023-01-11T10:48:49.394Z,100.00
2023-01-11T10:49:49.382Z,100.00
2023-01-11T10:50:49.380Z,100.00
2023-01-11T10:51:49.444Z,100.00
2023-01-11T10:52:49.339Z,100.00
2023-01-11T10:53:49.340Z,100.00
2023-01-11T10:54:50.242Z,100.00
2023-01-11T10:55:49.295Z,100.00
2023-01-11T10:57:03.183Z,100.00
2023-01-11T10:58:01.275Z,100.00
2023-01-11T10:58:49.283Z,100.00
2023-01-11T10:59:49.285Z,100.00
2023-01-11T11:00:49.301Z,100.00
2023-01-11T11:01:49.322Z,100.00
2023-01-11T11:02:49.219Z,100.00
2023-01-11T11:03:49.197Z,100.00
2023-01-11T11:04:49.189Z,100.00
2023-01-11T11:05:49.178Z,100.00
2023-01-11T11:06:49.156Z,100.00
2023-01-11T11:07:49.137Z,100.00
2023-01-11T11:08:49.152Z,100.00
2023-01-11T11:09:49.128Z,100.00
2023-01-11T11:10:49.142Z,100.00
2023-01-11T11:11:49.102Z,100.00
2023-01-11T11:12:49.103Z,100.00
2023-01-11T11:13:49.090Z,100.00
2023-01-11T11:14:49.099Z,100.00
2023-01-11T11:15:49.105Z,100.00
2023-01-11T11:16:49.051Z,100.00
2023-01-11T11:17:49.035Z,100.00
2023-01-11T11:18:49.028Z,100.00
2023-01-11T11:19:49.009Z,100.00
2023-01-11T11:20:48.972Z,100.00
2023-01-11T11:21:48.986Z,100.00
2023-01-11T11:22:48.952Z,100.00
2023-01-11T11:23:48.982Z,100.00
2023-01-11T11:24:48.966Z,100.00
2023-01-11T11:25:48.953Z,100.00
2023-01-11T11:26:48.966Z,100.00
2023-01-11T11:27:48.916Z,100.00
2023-01-11T11:28:48.876Z,100.00
2023-01-11T11:29:48.867Z,100.00
2023-01-11T11:30:48.869Z,100.00
2023-01-11T11:31:48.929Z,100.00
2023-01-11T11:32:48.801Z,100.00
2023-01-11T11:33:48.809Z,100.00
2023-01-11T11:34:48.796Z,100.00
2023-01-11T11:35:48.776Z,100.00
2023-01-11T11:36:48.786Z,100.00
2023-01-11T11:37:48.768Z,100.00
2023-01-11T11:38:48.759Z,100.00
2023-01-11T11:39:48.734Z,100.00
2023-01-11T11:40:48.753Z,100.00
2023-01-11T11:41:48.727Z,100.00
2023-01-11T11:42:48.724Z,100.00
2023-01-11T11:43:48.676Z,100.00
2023-01-11T11:44:48.674Z,100.00
2023-01-11T11:45:48.744Z,100.00
2023-01-11T11:46:48.659Z,100.00
2023-01-11T11:47:48.829Z,100.00
2023-01-11T11:48:48.666Z,100.00
2023-01-11T11:49:48.639Z,100.00
2023-01-11T11:50:48.673Z,100.00
2023-01-11T11:51:48.605Z,100.00
2023-01-11T11:52:48.571Z,100.00
2023-01-11T11:53:48.525Z,100.00
2023-01-11T11:54:48.571Z,100.00
2023-01-11T11:55:48.527Z,100.00
2023-01-11T11:56:48.488Z,100.00
2023-01-11T11:57:48.498Z,100.00
2023-01-11T11:58:48.491Z,100.00
2023-01-11T11:59:48.496Z,100.00
2023-01-11T12:00:48.455Z,100.00
2023-01-11T12:01:48.565Z,100.00
2023-01-11T12:02:48.427Z,100.00
2023-01-11T12:03:48.399Z,100.00
2023-01-11T12:04:48.477Z,100.00
2023-01-11T12:05:48.423Z,100.00
2023-01-11T12:06:49.381Z,100.00
2023-01-11T12:07:54.636Z,100.00
2023-01-11T12:08:48.342Z,100.00
2023-01-11T12:09:48.345Z,100.00
2023-01-11T12:10:48.335Z,100.00
2023-01-11T12:11:48.341Z,100.00
2023-01-11T12:12:48.322Z,100.00
2023-01-11T12:13:48.270Z,100.00
2023-01-11T12:14:48.270Z,100.00
2023-01-11T12:15:48.244Z,100.00
2023-01-11T12:16:48.321Z,100.00
2023-01-11T12:17:48.260Z,100.00
2023-01-11T12:18:48.225Z,100.00
2023-01-11T12:19:48.240Z,100.00
2023-01-11T12:20:48.171Z,100.00
2023-01-11T12:21:48.206Z,100.00
2023-01-11T12:22:48.147Z,100.00
2023-01-11T12:23:48.139Z,100.00
2023-01-11T12:24:48.136Z,100.00
2023-01-11T12:25:48.128Z,100.00
2023-01-11T12:26:48.274Z,100.00
2023-01-11T12:27:48.121Z,100.00
2023-01-11T12:28:48.105Z,100.00
2023-01-11T12:29:48.091Z,100.00
2023-01-11T12:30:48.090Z,100.00
2023-01-11T12:31:48.066Z,100.00
2023-01-11T12:32:48.051Z,100.00
2023-01-11T12:33:48.054Z,100.00
2023-01-11T12:34:48.002Z,100.00
2023-01-11T12:35:48.021Z,100.00
2023-01-11T12:36:48.016Z,100.00
2023-01-11T12:37:47.987Z,100.00
2023-01-11T12:38:47.949Z,100.00
2023-01-11T12:39:47.934Z,100.00
2023-01-11T12:40:47.945Z,100.00
2023-01-11T12:41:47.986Z,100.00
2023-01-11T12:42:47.892Z,100.00
2023-01-11T12:43:47.880Z,100.00
2023-01-11T12:44:47.860Z,100.00
2023-01-11T12:45:47.889Z,100.00
2023-01-11T12:46:47.833Z,100.00
2023-01-11T12:47:47.829Z,100.00
2023-01-11T12:48:47.842Z,100.00
2023-01-11T12:49:47.850Z,100.00
2023-01-11T12:50:47.792Z,100.00
2023-01-11T12:51:47.767Z,100.00
2023-01-11T12:52:47.753Z,100.00
2023-01-11T12:53:47.776Z,100.00
2023-01-11T12:54:47.733Z,100.00
2023-01-11T12:55:47.750Z,100.00
2023-01-11T12:56:47.721Z,100.00